sensor_id;sensor_type;location;lat;lon;timestamp;temperature;humidity
5617;DHT22;2830;50.656;7.568;2023-04-15T00:01:04;2.90;99.90
5617;DHT22;2830;50.656;7.568;2023-04-15T00:03:31;2.90;99.90
5617;DHT22;2830;50.656;7.568;2023-04-15T00:06:00;2.80;99.90
5617;DHT22;2830;50.656;7.568;2023-04-15T00:08:27;2.70;99.90
5617;DHT22;2830;50.656;7.568;2023-04-15T00:10:55;2.60;99.90
5617;DHT22;2830;50.656;7.568;2023-04-15T00:13:22;2.60;99.90
5617;DHT22;2830;50.656;7.568;2023-04-15T00:15:49;2.60;99.90
5617;DHT22;2830;50.656;7.568;2023-04-15T00:18:15;2.70;99.90
5617;DHT22;2830;50.656;7.568;2023-04-15T00:20:42;2.70;99.90
5617;DHT22;2830;50.656;7.568;2023-04-15T00:23:09;2.70;99.90
5617;DHT22;2830;50.656;7.568;2023-04-15T00:25:35;2.70;99.90
5617;DHT22;2830;50.656;7.568;2023-04-15T00:28:02;2.60;99.90
5617;DHT22;2830;50.656;7.568;2023-04-15T00:30:29;2.60;99.90
5617;DHT22;2830;50.656;7.568;2023-04-15T00:32:56;2.50;99.90
5617;DHT22;2830;50.656;7.568;2023-04-15T00:35:23;2.40;99.90
5617;DHT22;2830;50.656;7.568;2023-04-15T00:37:50;2.30;99.90
5617;DHT22;2830;50.656;7.568;2023-04-15T00:40:18;2.30;99.90
5617;DHT22;2830;50.656;7.568;2023-04-15T00:42:45;2.40;99.90
5617;DHT22;2830;50.656;7.568;2023-04-15T00:45:11;2.40;99.90
5617;DHT22;2830;50.656;7.568;2023-04-15T00:47:40;2.30;99.90
5617;DHT22;2830;50.656;7.568;2023-04-15T00:50:09;2.20;99.90
5617;DHT22;2830;50.656;7.568;2023-04-15T00:52:36;2.20;99.90
5617;DHT22;2830;50.656;7.568;2023-04-15T00:55:03;2.20;99.90
5617;DHT22;2830;50.656;7.568;2023-04-15T00:57:31;2.20;99.90
5617;DHT22;2830;50.656;7.568;2023-04-15T00:59:59;2.10;99.90
5617;DHT22;2830;50.656;7.568;2023-04-15T01:02:26;2.20;99.90
5617;DHT22;2830;50.656;7.568;2023-04-15T01:04:53;2.20;99.90
5617;DHT22;2830;50.656;7.568;2023-04-15T01:07:21;2.20;99.90
5617;DHT22;2830;50.656;7.568;2023-04-15T01:09:48;2.00;99.90
5617;DHT22;2830;50.656;7.568;2023-04-15T01:12:16;2.00;99.90
5617;DHT22;2830;50.656;7.568;2023-04-15T01:14:43;2.00;99.90
5617;DHT22;2830;50.656;7.568;2023-04-15T01:17:10;2.00;99.90
5617;DHT22;2830;50.656;7.568;2023-04-15T01:19:37;2.10;99.90
5617;DHT22;2830;50.656;7.568;2023-04-15T01:22:03;2.10;99.90
5617;DHT22;2830;50.656;7.568;2023-04-15T01:24:31;2.10;99.90
5617;DHT22;2830;50.656;7.568;2023-04-15T01:26:59;2.00;99.90
5617;DHT22;2830;50.656;7.568;2023-04-15T01:29:26;2.00;99.90
5617;DHT22;2830;50.656;7.568;2023-04-15T01:31:54;2.00;99.90
5617;DHT22;2830;50.656;7.568;2023-04-15T01:34:21;2.00;99.90
5617;DHT22;2830;50.656;7.568;2023-04-15T01:36:48;1.90;99.90
5617;DHT22;2830;50.656;7.568;2023-04-15T01:39:15;1.90;99.90
5617;DHT22;2830;50.656;7.568;2023-04-15T01:41:41;2.00;99.90
5617;DHT22;2830;50.656;7.568;2023-04-15T01:44:08;2.00;99.90
5617;DHT22;2830;50.656;7.568;2023-04-15T01:46:35;2.00;99.90
5617;DHT22;2830;50.656;7.568;2023-04-15T01:49:02;2.00;99.90
5617;DHT22;2830;50.656;7.568;2023-04-15T01:51:29;2.10;99.90
5617;DHT22;2830;50.656;7.568;2023-04-15T01:53:55;2.00;99.90
5617;DHT22;2830;50.656;7.568;2023-04-15T01:56:22;2.00;99.90
5617;DHT22;2830;50.656;7.568;2023-04-15T01:58:52;1.90;99.90
5617;DHT22;2830;50.656;7.568;2023-04-15T02:01:19;1.90;99.90
5617;DHT22;2830;50.656;7.568;2023-04-15T02:03:46;1.80;99.90
5617;DHT22;2830;50.656;7.568;2023-04-15T02:06:13;1.70;99.90
5617;DHT22;2830;50.656;7.568;2023-04-15T02:08:40;1.70;99.90
5617;DHT22;2830;50.656;7.568;2023-04-15T02:11:07;1.70;99.90
5617;DHT22;2830;50.656;7.568;2023-04-15T02:13:34;1.70;99.90
5617;DHT22;2830;50.656;7.568;2023-04-15T02:16:01;1.70;99.90
5617;DHT22;2830;50.656;7.568;2023-04-15T02:18:28;1.60;99.90
5617;DHT22;2830;50.656;7.568;2023-04-15T02:20:55;1.60;99.90
5617;DHT22;2830;50.656;7.568;2023-04-15T02:23:23;1.70;99.90
5617;DHT22;2830;50.656;7.568;2023-04-15T02:25:50;1.70;99.90
5617;DHT22;2830;50.656;7.568;2023-04-15T02:28:20;1.60;99.90
5617;DHT22;2830;50.656;7.568;2023-04-15T02:30:48;1.50;99.90
5617;DHT22;2830;50.656;7.568;2023-04-15T02:33:18;1.60;99.90
5617;DHT22;2830;50.656;7.568;2023-04-15T02:35:44;1.70;99.90
5617;DHT22;2830;50.656;7.568;2023-04-15T02:38:11;1.80;99.90
5617;DHT22;2830;50.656;7.568;2023-04-15T02:40:39;1.80;99.90
5617;DHT22;2830;50.656;7.568;2023-04-15T02:43:06;1.70;99.90
5617;DHT22;2830;50.656;7.568;2023-04-15T02:45:33;1.60;99.90
5617;DHT22;2830;50.656;7.568;2023-04-15T02:48:00;1.60;99.90
5617;DHT22;2830;50.656;7.568;2023-04-15T02:50:31;1.70;99.90
5617;DHT22;2830;50.656;7.568;2023-04-15T02:52:58;1.60;99.90
5617;DHT22;2830;50.656;7.568;2023-04-15T02:55:26;1.60;99.90
5617;DHT22;2830;50.656;7.568;2023-04-15T02:57:53;1.60;99.90
5617;DHT22;2830;50.656;7.568;2023-04-15T03:00:20;1.50;99.90
5617;DHT22;2830;50.656;7.568;2023-04-15T03:02:47;1.40;99.90
5617;DHT22;2830;50.656;7.568;2023-04-15T03:05:17;1.40;99.90
5617;DHT22;2830;50.656;7.568;2023-04-15T03:07:44;1.50;99.90
5617;DHT22;2830;50.656;7.568;2023-04-15T03:10:11;1.50;99.90
5617;DHT22;2830;50.656;7.568;2023-04-15T03:12:37;1.60;99.90
5617;DHT22;2830;50.656;7.568;2023-04-15T03:15:05;1.50;99.90
5617;DHT22;2830;50.656;7.568;2023-04-15T03:17:32;1.50;99.90
5617;DHT22;2830;50.656;7.568;2023-04-15T03:20:01;1.40;99.90
5617;DHT22;2830;50.656;7.568;2023-04-15T03:22:28;1.40;99.90
5617;DHT22;2830;50.656;7.568;2023-04-15T03:24:54;1.30;99.90
5617;DHT22;2830;50.656;7.568;2023-04-15T03:27:21;1.20;99.90
5617;DHT22;2830;50.656;7.568;2023-04-15T03:29:48;1.10;99.90
5617;DHT22;2830;50.656;7.568;2023-04-15T03:32:15;1.00;99.90
5617;DHT22;2830;50.656;7.568;2023-04-15T03:34:42;1.10;99.90
5617;DHT22;2830;50.656;7.568;2023-04-15T03:37:08;1.10;99.90
5617;DHT22;2830;50.656;7.568;2023-04-15T03:39:35;1.20;99.90
5617;DHT22;2830;50.656;7.568;2023-04-15T03:42:02;1.20;99.90
5617;DHT22;2830;50.656;7.568;2023-04-15T03:44:30;1.20;99.90
5617;DHT22;2830;50.656;7.568;2023-04-15T03:46:57;1.20;99.90
5617;DHT22;2830;50.656;7.568;2023-04-15T03:49:23;1.20;99.90
5617;DHT22;2830;50.656;7.568;2023-04-15T03:51:50;1.10;99.90
5617;DHT22;2830;50.656;7.568;2023-04-15T03:54:17;1.10;99.90
5617;DHT22;2830;50.656;7.568;2023-04-15T03:56:43;1.00;99.90
5617;DHT22;2830;50.656;7.568;2023-04-15T03:59:10;1.00;99.90
5617;DHT22;2830;50.656;7.568;2023-04-15T04:01:36;1.00;99.90
5617;DHT22;2830;50.656;7.568;2023-04-15T04:04:03;1.00;99.90
5617;DHT22;2830;50.656;7.568;2023-04-15T04:06:30;1.10;99.90
5617;DHT22;2830;50.656;7.568;2023-04-15T04:08:57;1.00;99.90
5617;DHT22;2830;50.656;7.568;2023-04-15T04:11:23;1.10;99.90
5617;DHT22;2830;50.656;7.568;2023-04-15T04:13:50;1.10;99.90
5617;DHT22;2830;50.656;7.568;2023-04-15T04:16:16;1.00;99.90
5617;DHT22;2830;50.656;7.568;2023-04-15T04:18:43;1.00;99.90
5617;DHT22;2830;50.656;7.568;2023-04-15T04:21:10;1.00;99.90
5617;DHT22;2830;50.656;7.568;2023-04-15T04:23:37;0.90;99.90
5617;DHT22;2830;50.656;7.568;2023-04-15T04:26:04;1.00;99.90
5617;DHT22;2830;50.656;7.568;2023-04-15T04:28:30;0.90;99.90
5617;DHT22;2830;50.656;7.568;2023-04-15T04:30:57;1.00;99.90
5617;DHT22;2830;50.656;7.568;2023-04-15T04:33:24;1.00;99.90
5617;DHT22;2830;50.656;7.568;2023-04-15T04:35:51;1.00;99.90
5617;DHT22;2830;50.656;7.568;2023-04-15T04:38:17;0.90;99.90
5617;DHT22;2830;50.656;7.568;2023-04-15T04:40:44;0.90;99.90
5617;DHT22;2830;50.656;7.568;2023-04-15T04:43:11;0.90;99.90
5617;DHT22;2830;50.656;7.568;2023-04-15T04:45:38;0.90;99.90
5617;DHT22;2830;50.656;7.568;2023-04-15T04:48:05;0.90;99.90
5617;DHT22;2830;50.656;7.568;2023-04-15T04:50:34;1.00;99.90
5617;DHT22;2830;50.656;7.568;2023-04-15T04:53:02;1.00;99.90
5617;DHT22;2830;50.656;7.568;2023-04-15T04:55:28;1.10;99.90
5617;DHT22;2830;50.656;7.568;2023-04-15T04:57:55;1.10;99.90
5617;DHT22;2830;50.656;7.568;2023-04-15T05:00:22;1.10;99.90
5617;DHT22;2830;50.656;7.568;2023-04-15T05:02:48;1.20;99.90
5617;DHT22;2830;50.656;7.568;2023-04-15T05:05:16;1.10;99.90
5617;DHT22;2830;50.656;7.568;2023-04-15T05:07:42;1.00;99.90
5617;DHT22;2830;50.656;7.568;2023-04-15T05:10:09;1.00;99.90
5617;DHT22;2830;50.656;7.568;2023-04-15T05:12:36;1.10;99.90
5617;DHT22;2830;50.656;7.568;2023-04-15T05:15:05;1.10;99.90
5617;DHT22;2830;50.656;7.568;2023-04-15T05:17:32;1.20;99.90
5617;DHT22;2830;50.656;7.568;2023-04-15T05:20:01;1.30;99.90
5617;DHT22;2830;50.656;7.568;2023-04-15T05:22:30;1.40;99.90
5617;DHT22;2830;50.656;7.568;2023-04-15T05:24:57;1.40;99.90
5617;DHT22;2830;50.656;7.568;2023-04-15T05:27:23;1.40;99.90
5617;DHT22;2830;50.656;7.568;2023-04-15T05:29:50;1.50;99.90
5617;DHT22;2830;50.656;7.568;2023-04-15T05:32:17;1.50;99.90
5617;DHT22;2830;50.656;7.568;2023-04-15T05:34:43;1.50;99.90
5617;DHT22;2830;50.656;7.568;2023-04-15T05:37:10;1.30;99.90
5617;DHT22;2830;50.656;7.568;2023-04-15T05:39:37;1.20;99.90
5617;DHT22;2830;50.656;7.568;2023-04-15T05:42:03;1.20;99.90
5617;DHT22;2830;50.656;7.568;2023-04-15T05:44:31;1.30;99.90
5617;DHT22;2830;50.656;7.568;2023-04-15T05:46:58;1.40;99.90
5617;DHT22;2830;50.656;7.568;2023-04-15T05:49:25;1.50;99.90
5617;DHT22;2830;50.656;7.568;2023-04-15T05:51:51;1.50;99.90
5617;DHT22;2830;50.656;7.568;2023-04-15T05:54:18;1.40;99.90
5617;DHT22;2830;50.656;7.568;2023-04-15T05:56:46;1.30;99.90
5617;DHT22;2830;50.656;7.568;2023-04-15T05:59:12;1.40;99.90
5617;DHT22;2830;50.656;7.568;2023-04-15T06:01:39;1.60;99.90
5617;DHT22;2830;50.656;7.568;2023-04-15T06:04:06;1.70;99.90
5617;DHT22;2830;50.656;7.568;2023-04-15T06:06:32;1.80;99.90
5617;DHT22;2830;50.656;7.568;2023-04-15T06:09:00;1.90;99.90
5617;DHT22;2830;50.656;7.568;2023-04-15T06:11:27;2.00;99.90
5617;DHT22;2830;50.656;7.568;2023-04-15T06:13:53;2.20;99.90
5617;DHT22;2830;50.656;7.568;2023-04-15T06:16:20;2.40;99.90
5617;DHT22;2830;50.656;7.568;2023-04-15T06:18:47;2.60;99.90
5617;DHT22;2830;50.656;7.568;2023-04-15T06:21:14;2.70;99.90
5617;DHT22;2830;50.656;7.568;2023-04-15T06:23:41;2.90;99.90
5617;DHT22;2830;50.656;7.568;2023-04-15T06:26:08;3.30;99.90
5617;DHT22;2830;50.656;7.568;2023-04-15T06:28:35;3.50;99.90
5617;DHT22;2830;50.656;7.568;2023-04-15T06:31:02;3.90;99.90
5617;DHT22;2830;50.656;7.568;2023-04-15T06:33:29;4.40;99.30
5617;DHT22;2830;50.656;7.568;2023-04-15T06:35:55;4.80;98.20
5617;DHT22;2830;50.656;7.568;2023-04-15T06:38:22;5.20;97.20
5617;DHT22;2830;50.656;7.568;2023-04-15T06:40:49;5.60;95.30
5617;DHT22;2830;50.656;7.568;2023-04-15T06:43:15;6.00;95.10
5617;DHT22;2830;50.656;7.568;2023-04-15T06:45:42;6.50;93.70
5617;DHT22;2830;50.656;7.568;2023-04-15T06:48:09;6.80;92.70
5617;DHT22;2830;50.656;7.568;2023-04-15T06:50:35;6.80;93.70
5617;DHT22;2830;50.656;7.568;2023-04-15T06:53:10;7.00;92.40
5617;DHT22;2830;50.656;7.568;2023-04-15T06:55:36;7.20;93.30
5617;DHT22;2830;50.656;7.568;2023-04-15T06:58:03;7.70;92.20
5617;DHT22;2830;50.656;7.568;2023-04-15T07:00:30;8.30;90.60
5617;DHT22;2830;50.656;7.568;2023-04-15T07:02:56;8.80;89.60
5617;DHT22;2830;50.656;7.568;2023-04-15T07:05:23;9.20;86.90
5617;DHT22;2830;50.656;7.568;2023-04-15T07:07:50;9.30;86.90
5617;DHT22;2830;50.656;7.568;2023-04-15T07:10:18;9.40;87.30
5617;DHT22;2830;50.656;7.568;2023-04-15T07:12:47;9.30;87.20
5617;DHT22;2830;50.656;7.568;2023-04-15T07:15:14;8.90;89.30
5617;DHT22;2830;50.656;7.568;2023-04-15T07:17:40;8.60;91.00
5617;DHT22;2830;50.656;7.568;2023-04-15T07:20:09;8.60;91.30
5617;DHT22;2830;50.656;7.568;2023-04-15T07:22:35;9.20;90.70
5617;DHT22;2830;50.656;7.568;2023-04-15T07:25:02;9.60;90.00
5617;DHT22;2830;50.656;7.568;2023-04-15T07:27:29;10.20;89.30
5617;DHT22;2830;50.656;7.568;2023-04-15T07:29:56;10.90;84.60
5617;DHT22;2830;50.656;7.568;2023-04-15T07:32:23;11.70;84.50
5617;DHT22;2830;50.656;7.568;2023-04-15T07:34:49;12.30;80.70
5617;DHT22;2830;50.656;7.568;2023-04-15T07:37:16;13.10;76.80
5617;DHT22;2830;50.656;7.568;2023-04-15T07:39:44;13.60;73.60
5617;DHT22;2830;50.656;7.568;2023-04-15T07:42:11;14.00;70.20
5617;DHT22;2830;50.656;7.568;2023-04-15T07:44:37;14.00;70.00
5617;DHT22;2830;50.656;7.568;2023-04-15T07:47:04;14.30;70.10
5617;DHT22;2830;50.656;7.568;2023-04-15T07:49:31;14.60;69.50
5617;DHT22;2830;50.656;7.568;2023-04-15T07:51:58;15.40;65.90
5617;DHT22;2830;50.656;7.568;2023-04-15T07:54:25;16.00;63.50
5617;DHT22;2830;50.656;7.568;2023-04-15T07:56:52;15.70;63.50
5617;DHT22;2830;50.656;7.568;2023-04-15T07:59:19;15.10;66.70
5617;DHT22;2830;50.656;7.568;2023-04-15T08:01:47;15.40;68.20
5617;DHT22;2830;50.656;7.568;2023-04-15T08:04:14;15.30;67.60
5617;DHT22;2830;50.656;7.568;2023-04-15T08:06:41;15.40;67.70
5617;DHT22;2830;50.656;7.568;2023-04-15T08:09:08;14.90;67.70
5617;DHT22;2830;50.656;7.568;2023-04-15T08:11:35;15.00;69.40
5617;DHT22;2830;50.656;7.568;2023-04-15T08:14:02;15.10;69.00
5617;DHT22;2830;50.656;7.568;2023-04-15T08:16:28;15.00;70.10
5617;DHT22;2830;50.656;7.568;2023-04-15T08:18:55;15.10;67.20
5617;DHT22;2830;50.656;7.568;2023-04-15T08:21:22;15.20;69.30
5617;DHT22;2830;50.656;7.568;2023-04-15T08:23:51;15.40;64.30
5617;DHT22;2830;50.656;7.568;2023-04-15T08:26:19;15.50;66.50
5617;DHT22;2830;50.656;7.568;2023-04-15T08:28:47;16.00;65.10
5617;DHT22;2830;50.656;7.568;2023-04-15T08:31:14;16.50;61.90
5617;DHT22;2830;50.656;7.568;2023-04-15T08:33:41;16.70;60.40
5617;DHT22;2830;50.656;7.568;2023-04-15T08:36:09;17.40;60.90
5617;DHT22;2830;50.656;7.568;2023-04-15T08:38:35;16.80;56.00
5617;DHT22;2830;50.656;7.568;2023-04-15T08:43:57;15.80;59.80
5617;DHT22;2830;50.656;7.568;2023-04-15T08:46:26;15.50;63.50
5617;DHT22;2830;50.656;7.568;2023-04-15T08:48:56;15.30;62.40
5617;DHT22;2830;50.656;7.568;2023-04-15T08:51:23;14.80;62.10
5617;DHT22;2830;50.656;7.568;2023-04-15T08:53:50;14.10;63.50
5617;DHT22;2830;50.656;7.568;2023-04-15T08:56:18;14.00;64.50
5617;DHT22;2830;50.656;7.568;2023-04-15T08:58:46;14.10;66.20
5617;DHT22;2830;50.656;7.568;2023-04-15T09:01:13;14.40;65.70
5617;DHT22;2830;50.656;7.568;2023-04-15T09:03:41;14.90;62.70
5617;DHT22;2830;50.656;7.568;2023-04-15T09:06:08;15.40;62.50
5617;DHT22;2830;50.656;7.568;2023-04-15T09:08:37;15.70;58.80
5617;DHT22;2830;50.656;7.568;2023-04-15T09:11:04;16.00;56.80
5617;DHT22;2830;50.656;7.568;2023-04-15T09:13:31;16.40;60.20
5617;DHT22;2830;50.656;7.568;2023-04-15T09:15:57;16.80;55.90
5617;DHT22;2830;50.656;7.568;2023-04-15T09:18:32;17.50;55.20
5617;DHT22;2830;50.656;7.568;2023-04-15T09:21:13;18.40;52.00
5617;DHT22;2830;50.656;7.568;2023-04-15T09:23:54;19.30;48.20
5617;DHT22;2830;50.656;7.568;2023-04-15T09:26:35;19.00;49.90
5617;DHT22;2830;50.656;7.568;2023-04-15T09:29:06;18.70;48.90
5617;DHT22;2830;50.656;7.568;2023-04-15T09:31:35;19.10;46.50
5617;DHT22;2830;50.656;7.568;2023-04-15T09:34:02;18.50;45.60
5617;DHT22;2830;50.656;7.568;2023-04-15T09:36:50;18.10;47.40
5617;DHT22;2830;50.656;7.568;2023-04-15T09:39:17;17.10;48.40
5617;DHT22;2830;50.656;7.568;2023-04-15T09:41:44;16.40;49.30
5617;DHT22;2830;50.656;7.568;2023-04-15T09:44:24;16.70;52.10
5617;DHT22;2830;50.656;7.568;2023-04-15T09:46:51;17.30;50.40
5617;DHT22;2830;50.656;7.568;2023-04-15T09:49:18;17.30;50.70
5617;DHT22;2830;50.656;7.568;2023-04-15T09:51:46;17.10;49.80
5617;DHT22;2830;50.656;7.568;2023-04-15T09:54:38;17.40;50.90
5617;DHT22;2830;50.656;7.568;2023-04-15T09:57:08;16.90;50.60
5617;DHT22;2830;50.656;7.568;2023-04-15T09:59:38;16.60;51.20
5617;DHT22;2830;50.656;7.568;2023-04-15T10:02:05;16.40;51.50
5617;DHT22;2830;50.656;7.568;2023-04-15T10:04:39;16.10;53.50
5617;DHT22;2830;50.656;7.568;2023-04-15T10:07:08;16.10;54.00
5617;DHT22;2830;50.656;7.568;2023-04-15T10:09:35;16.30;54.70
5617;DHT22;2830;50.656;7.568;2023-04-15T10:12:04;16.10;54.50
5617;DHT22;2830;50.656;7.568;2023-04-15T10:14:33;16.00;55.00
5617;DHT22;2830;50.656;7.568;2023-04-15T10:17:01;15.90;54.50
5617;DHT22;2830;50.656;7.568;2023-04-15T10:19:32;15.70;55.40
5617;DHT22;2830;50.656;7.568;2023-04-15T10:21:59;15.80;55.20
5617;DHT22;2830;50.656;7.568;2023-04-15T10:24:27;15.90;56.50
5617;DHT22;2830;50.656;7.568;2023-04-15T10:26:54;16.00;56.10
5617;DHT22;2830;50.656;7.568;2023-04-15T10:29:21;16.80;55.00
5617;DHT22;2830;50.656;7.568;2023-04-15T10:31:49;17.10;54.30
5617;DHT22;2830;50.656;7.568;2023-04-15T10:34:16;17.00;54.70
5617;DHT22;2830;50.656;7.568;2023-04-15T10:36:43;16.90;54.50
5617;DHT22;2830;50.656;7.568;2023-04-15T10:39:41;16.80;55.00
5617;DHT22;2830;50.656;7.568;2023-04-15T10:42:13;16.30;56.60
5617;DHT22;2830;50.656;7.568;2023-04-15T10:44:42;16.00;58.30
5617;DHT22;2830;50.656;7.568;2023-04-15T10:47:17;15.70;56.30
5617;DHT22;2830;50.656;7.568;2023-04-15T10:49:47;15.40;58.00
5617;DHT22;2830;50.656;7.568;2023-04-15T10:52:15;15.40;59.70
5617;DHT22;2830;50.656;7.568;2023-04-15T10:54:43;15.20;57.60
5617;DHT22;2830;50.656;7.568;2023-04-15T10:57:21;14.90;59.60
5617;DHT22;2830;50.656;7.568;2023-04-15T11:02:42;14.60;59.30
5617;DHT22;2830;50.656;7.568;2023-04-15T11:05:10;14.70;60.80
5617;DHT22;2830;50.656;7.568;2023-04-15T11:07:40;14.60;60.80
5617;DHT22;2830;50.656;7.568;2023-04-15T11:12:55;14.40;63.30
5617;DHT22;2830;50.656;7.568;2023-04-15T11:15:32;14.20;63.70
5617;DHT22;2830;50.656;7.568;2023-04-15T11:20:39;14.30;64.80
5617;DHT22;2830;50.656;7.568;2023-04-15T11:23:07;14.20;65.30
5617;DHT22;2830;50.656;7.568;2023-04-15T11:25:41;14.20;67.20
5617;DHT22;2830;50.656;7.568;2023-04-15T11:28:10;14.30;67.40
5617;DHT22;2830;50.656;7.568;2023-04-15T11:30:37;14.40;69.50
5617;DHT22;2830;50.656;7.568;2023-04-15T11:33:06;14.20;68.80
5617;DHT22;2830;50.656;7.568;2023-04-15T11:35:39;14.10;69.70
5617;DHT22;2830;50.656;7.568;2023-04-15T11:38:11;13.90;69.50
5617;DHT22;2830;50.656;7.568;2023-04-15T11:40:39;13.80;70.70
5617;DHT22;2830;50.656;7.568;2023-04-15T11:43:12;13.80;71.70
5617;DHT22;2830;50.656;7.568;2023-04-15T11:45:54;13.70;69.90
5617;DHT22;2830;50.656;7.568;2023-04-15T11:48:23;13.50;71.60
5617;DHT22;2830;50.656;7.568;2023-04-15T11:50:55;13.20;72.70
5617;DHT22;2830;50.656;7.568;2023-04-15T11:53:22;13.10;74.70
5617;DHT22;2830;50.656;7.568;2023-04-15T11:55:51;13.10;74.80
5617;DHT22;2830;50.656;7.568;2023-04-15T11:58:19;13.10;75.40
5617;DHT22;2830;50.656;7.568;2023-04-15T12:03:22;13.10;75.70
5617;DHT22;2830;50.656;7.568;2023-04-15T12:06:22;12.80;76.70
5617;DHT22;2830;50.656;7.568;2023-04-15T12:11:50;12.10;78.30
5617;DHT22;2830;50.656;7.568;2023-04-15T12:14:31;12.10;79.70
5617;DHT22;2830;50.656;7.568;2023-04-15T12:17:00;11.90;81.80
5617;DHT22;2830;50.656;7.568;2023-04-15T12:19:35;11.90;83.20
5617;DHT22;2830;50.656;7.568;2023-04-15T12:22:04;11.80;82.60
5617;DHT22;2830;50.656;7.568;2023-04-15T12:24:32;11.70;85.30
5617;DHT22;2830;50.656;7.568;2023-04-15T12:27:04;11.60;84.60
5617;DHT22;2830;50.656;7.568;2023-04-15T12:29:32;11.70;85.30
5617;DHT22;2830;50.656;7.568;2023-04-15T12:32:07;11.50;87.60
5617;DHT22;2830;50.656;7.568;2023-04-15T12:34:39;11.40;89.90
5617;DHT22;2830;50.656;7.568;2023-04-15T12:37:11;11.40;89.60
5617;DHT22;2830;50.656;7.568;2023-04-15T12:39:43;11.50;90.70
5617;DHT22;2830;50.656;7.568;2023-04-15T12:42:10;11.50;91.30
5617;DHT22;2830;50.656;7.568;2023-04-15T12:44:38;11.40;91.40
5617;DHT22;2830;50.656;7.568;2023-04-15T12:47:07;11.30;92.20
5617;DHT22;2830;50.656;7.568;2023-04-15T12:49:33;11.10;93.60
5617;DHT22;2830;50.656;7.568;2023-04-15T12:52:01;11.00;95.00
5617;DHT22;2830;50.656;7.568;2023-04-15T12:54:29;11.00;95.10
5617;DHT22;2830;50.656;7.568;2023-04-15T12:56:56;11.00;95.40
5617;DHT22;2830;50.656;7.568;2023-04-15T12:59:23;10.90;96.20
5617;DHT22;2830;50.656;7.568;2023-04-15T13:01:51;10.90;96.80
5617;DHT22;2830;50.656;7.568;2023-04-15T13:04:19;10.90;96.10
5617;DHT22;2830;50.656;7.568;2023-04-15T13:06:46;10.90;97.20
5617;DHT22;2830;50.656;7.568;2023-04-15T13:09:13;10.90;97.70
5617;DHT22;2830;50.656;7.568;2023-04-15T13:11:40;11.00;97.30
5617;DHT22;2830;50.656;7.568;2023-04-15T13:14:08;11.00;97.60
5617;DHT22;2830;50.656;7.568;2023-04-15T13:16:37;11.20;97.80
5617;DHT22;2830;50.656;7.568;2023-04-15T13:19:04;11.00;97.20
5617;DHT22;2830;50.656;7.568;2023-04-15T13:21:32;10.90;97.70
5617;DHT22;2830;50.656;7.568;2023-04-15T13:24:01;11.00;97.90
5617;DHT22;2830;50.656;7.568;2023-04-15T13:26:28;11.10;98.90
5617;DHT22;2830;50.656;7.568;2023-04-15T13:28:56;11.10;98.20
5617;DHT22;2830;50.656;7.568;2023-04-15T13:31:23;11.00;98.10
5617;DHT22;2830;50.656;7.568;2023-04-15T13:33:50;10.90;97.20
5617;DHT22;2830;50.656;7.568;2023-04-15T13:36:17;10.70;99.10
5617;DHT22;2830;50.656;7.568;2023-04-15T13:38:44;10.60;99.40
5617;DHT22;2830;50.656;7.568;2023-04-15T13:41:11;10.60;99.70
5617;DHT22;2830;50.656;7.568;2023-04-15T13:43:37;10.50;99.30
5617;DHT22;2830;50.656;7.568;2023-04-15T13:46:04;10.30;99.90
5617;DHT22;2830;50.656;7.568;2023-04-15T13:48:31;10.30;99.90
5617;DHT22;2830;50.656;7.568;2023-04-15T13:50:57;10.30;99.90
5617;DHT22;2830;50.656;7.568;2023-04-15T13:53:24;10.40;99.90
5617;DHT22;2830;50.656;7.568;2023-04-15T13:56:06;10.50;99.90
5617;DHT22;2830;50.656;7.568;2023-04-15T13:58:32;10.60;99.90
5617;DHT22;2830;50.656;7.568;2023-04-15T14:00:59;10.60;99.90
5617;DHT22;2830;50.656;7.568;2023-04-15T14:03:28;10.50;99.90
5617;DHT22;2830;50.656;7.568;2023-04-15T14:05:55;10.60;99.90
5617;DHT22;2830;50.656;7.568;2023-04-15T14:08:24;10.90;99.90
5617;DHT22;2830;50.656;7.568;2023-04-15T14:10:50;11.00;99.90
5617;DHT22;2830;50.656;7.568;2023-04-15T14:13:17;11.00;99.90
5617;DHT22;2830;50.656;7.568;2023-04-15T14:15:45;10.90;99.70
5617;DHT22;2830;50.656;7.568;2023-04-15T14:18:12;10.80;99.90
5617;DHT22;2830;50.656;7.568;2023-04-15T14:20:38;11.00;99.90
5617;DHT22;2830;50.656;7.568;2023-04-15T14:23:06;11.00;99.90
5617;DHT22;2830;50.656;7.568;2023-04-15T14:25:32;11.10;99.90
5617;DHT22;2830;50.656;7.568;2023-04-15T14:28:00;11.20;99.90
5617;DHT22;2830;50.656;7.568;2023-04-15T14:30:27;11.30;99.90
5617;DHT22;2830;50.656;7.568;2023-04-15T14:32:54;11.20;99.90
5617;DHT22;2830;50.656;7.568;2023-04-15T14:35:21;11.10;99.90
5617;DHT22;2830;50.656;7.568;2023-04-15T14:37:47;11.00;99.90
5617;DHT22;2830;50.656;7.568;2023-04-15T14:40:14;10.90;99.90
5617;DHT22;2830;50.656;7.568;2023-04-15T14:42:40;10.80;99.90
5617;DHT22;2830;50.656;7.568;2023-04-15T14:45:08;10.60;99.90
5617;DHT22;2830;50.656;7.568;2023-04-15T14:47:34;10.50;99.90
5617;DHT22;2830;50.656;7.568;2023-04-15T14:50:01;10.50;99.90
5617;DHT22;2830;50.656;7.568;2023-04-15T14:52:32;10.40;99.90
5617;DHT22;2830;50.656;7.568;2023-04-15T14:55:10;10.60;99.90
5617;DHT22;2830;50.656;7.568;2023-04-15T14:57:38;10.70;99.90
5617;DHT22;2830;50.656;7.568;2023-04-15T15:00:06;10.60;99.90
5617;DHT22;2830;50.656;7.568;2023-04-15T15:02:34;10.50;99.90
5617;DHT22;2830;50.656;7.568;2023-04-15T15:05:06;10.40;99.90
5617;DHT22;2830;50.656;7.568;2023-04-15T15:07:34;10.30;99.90
5617;DHT22;2830;50.656;7.568;2023-04-15T15:10:03;10.20;99.90
5617;DHT22;2830;50.656;7.568;2023-04-15T15:12:31;10.10;99.90
5617;DHT22;2830;50.656;7.568;2023-04-15T15:14:58;10.10;99.90
5617;DHT22;2830;50.656;7.568;2023-04-15T15:17:28;10.00;99.90
5617;DHT22;2830;50.656;7.568;2023-04-15T15:19:55;9.90;99.90
5617;DHT22;2830;50.656;7.568;2023-04-15T15:22:22;9.80;99.90
5617;DHT22;2830;50.656;7.568;2023-04-15T15:24:51;9.70;99.90
5617;DHT22;2830;50.656;7.568;2023-04-15T15:27:19;9.70;99.90
5617;DHT22;2830;50.656;7.568;2023-04-15T15:29:45;9.70;99.90
5617;DHT22;2830;50.656;7.568;2023-04-15T15:32:12;9.70;99.90
5617;DHT22;2830;50.656;7.568;2023-04-15T15:34:39;9.70;99.90
5617;DHT22;2830;50.656;7.568;2023-04-15T15:37:05;9.70;99.90
5617;DHT22;2830;50.656;7.568;2023-04-15T15:39:34;9.80;99.90
5617;DHT22;2830;50.656;7.568;2023-04-15T15:42:00;9.80;99.90
5617;DHT22;2830;50.656;7.568;2023-04-15T15:44:27;9.80;99.90
5617;DHT22;2830;50.656;7.568;2023-04-15T15:46:54;9.70;99.90
5617;DHT22;2830;50.656;7.568;2023-04-15T15:49:21;9.70;99.90
5617;DHT22;2830;50.656;7.568;2023-04-15T15:51:48;9.70;99.90
5617;DHT22;2830;50.656;7.568;2023-04-15T15:54:15;9.60;99.90
5617;DHT22;2830;50.656;7.568;2023-04-15T15:56:41;9.60;99.90
5617;DHT22;2830;50.656;7.568;2023-04-15T15:59:08;9.60;99.90
5617;DHT22;2830;50.656;7.568;2023-04-15T16:01:35;9.50;99.90
5617;DHT22;2830;50.656;7.568;2023-04-15T16:04:02;9.50;99.90
5617;DHT22;2830;50.656;7.568;2023-04-15T16:06:29;9.50;99.90
5617;DHT22;2830;50.656;7.568;2023-04-15T16:08:59;9.40;99.90
5617;DHT22;2830;50.656;7.568;2023-04-15T16:11:27;9.30;99.90
5617;DHT22;2830;50.656;7.568;2023-04-15T16:13:54;9.30;99.90
5617;DHT22;2830;50.656;7.568;2023-04-15T16:16:21;9.20;99.90
5617;DHT22;2830;50.656;7.568;2023-04-15T16:18:48;9.20;99.90
5617;DHT22;2830;50.656;7.568;2023-04-15T16:21:15;9.20;99.90
5617;DHT22;2830;50.656;7.568;2023-04-15T16:23:41;9.20;99.90
5617;DHT22;2830;50.656;7.568;2023-04-15T16:26:08;9.20;99.90
5617;DHT22;2830;50.656;7.568;2023-04-15T16:28:37;9.20;99.90
5617;DHT22;2830;50.656;7.568;2023-04-15T16:31:05;9.20;99.90